Glenwood City, WI (54013)

7:53 PM CST on December 04, 2016 (GMT -0600)
KWIEMERA2 | | Change Station

Elev 1197 ft 45.10 °N, 92.26 °W | Updated 338 days ago

Mostly Cloudy
Mostly Cloudy
31 °F
Feels Like 22 °F
N
9
Wind Variable Wind from West
Gusts mph

Today
High -- | Low -- °F
--% Chance of Precip.
Yesterday
High -- | Low -- °F
Precip. -- in
Pressure 29.75 in
Visibility 5.0 miles
Clouds Scattered Clouds 900 ft
Mostly Cloudy 2600 ft
Overcast 3700 ft
Windchill 22 °F
Dew Point 30 °F
Humidity 95%
Rainfall in
Snow Depth Not available.
7:30 AM 4:27 PM
Waxing Crescent, 27% visible
METAR KLUM 050135Z AUTO 20006KT 5SM -RA SCT009 BKN026 OVC037 01/01 A2975 RMK AO2 T00080008
Pressure 29.75 in
Visibility 5.0 miles
Clouds Scattered Clouds 900 ft
Mostly Cloudy 2600 ft
Overcast 3700 ft
Windchill 22 °F
Dew Point 30 °F
Humidity 95%
Rainfall in
Snow Depth Not available.
7:30 AM 4:27 PM
Waxing Crescent, 27% visible
METAR KLUM 050135Z AUTO 20006KT 5SM -RA SCT009 BKN026 OVC037 01/01 A2975 RMK AO2 T00080008

10-Day Weather Forecast

Almanac

Astronomy

Dec. 04, 2016 Rise Set
Actual Time
Civil Twilight
Nautical Twilight
Astronomical Twilight
Moon
Length of Visible Light
Length of Day
Tomorrow will be .
, % of the Moon is Illuminated

Today's Extremes

State Highs State Lows

Community

WunderPhotos

Upload Photos

1,955,744 photos uploaded!

WunderBlog® & News

Nearby

Air Quality

  Air Quality AQ Index Pollutant
Not available.

Snow Depth

Station Depth Elevation

Earthquake Activity

City Distance Mag. Time & Date
Minimum magnitude displayed is 2.5.

Coastal Water Temperatures

Place Temperature

Stations

Nearby Weather Stations

Station Location Temp. Windchill Dew Point Humidity Wind Precip. Elev Updated Type
                   

Watches & Warnings

There are currently no watches in effect.